createdAt,value
2023-03-04T00:02:17.130Z,17.10
2023-03-04T00:04:44.893Z,17.10
2023-03-04T00:07:16.660Z,17.10
2023-03-04T00:09:44.439Z,17.00
2023-03-04T00:12:12.251Z,17.10
2023-03-04T00:14:40.077Z,17.10
2023-03-04T00:17:07.967Z,17.10
2023-03-04T00:19:35.932Z,17.00
2023-03-04T00:22:04.196Z,17.00
2023-03-04T00:24:32.175Z,17.10
2023-03-04T00:27:00.247Z,17.00
2023-03-04T00:29:29.281Z,17.00
2023-03-04T00:31:57.179Z,17.00
2023-03-04T00:34:25.098Z,17.00
2023-03-04T00:36:52.914Z,17.00
2023-03-04T00:39:20.625Z,17.00
2023-03-04T00:41:48.413Z,17.00
2023-03-04T00:44:16.413Z,17.00
2023-03-04T00:46:44.167Z,17.00
2023-03-04T00:49:12.150Z,17.00
2023-03-04T00:51:39.936Z,17.00
2023-03-04T00:54:07.736Z,17.00
2023-03-04T00:56:35.561Z,17.00
2023-03-04T00:59:03.372Z,17.00
2023-03-04T01:01:31.341Z,17.00
2023-03-04T01:03:59.131Z,17.00
2023-03-04T01:06:26.962Z,16.90
2023-03-04T01:08:54.817Z,17.00
2023-03-04T01:11:22.584Z,17.00
2023-03-04T01:13:50.406Z,17.00
2023-03-04T01:16:18.169Z,17.00
2023-03-04T01:18:47.584Z,16.90
2023-03-04T01:21:15.369Z,17.00
2023-03-04T01:23:43.283Z,16.90
2023-03-04T01:26:11.056Z,16.90
2023-03-04T01:28:38.823Z,16.90
2023-03-04T01:31:06.581Z,17.00
2023-03-04T01:33:34.365Z,17.00
2023-03-04T01:36:02.082Z,17.00
2023-03-04T01:38:29.836Z,16.90
2023-03-04T01:40:57.695Z,17.00
2023-03-04T01:43:25.607Z,17.00
2023-03-04T01:45:53.448Z,17.00
2023-03-04T01:48:21.310Z,17.00
2023-03-04T01:50:49.063Z,17.00
2023-03-04T01:53:17.221Z,16.90
2023-03-04T01:55:44.962Z,17.00
2023-03-04T01:58:12.841Z,17.00
2023-03-04T02:00:40.648Z,16.90
2023-03-04T02:03:08.644Z,17.00
2023-03-04T02:05:36.410Z,16.90
2023-03-04T02:08:04.238Z,17.00
2023-03-04T02:10:33.616Z,17.00
2023-03-04T02:13:01.453Z,16.90
2023-03-04T02:15:29.447Z,16.90
2023-03-04T02:17:57.239Z,16.90
2023-03-04T02:20:25.009Z,16.90
2023-03-04T02:22:52.788Z,16.90
2023-03-04T02:25:32.404Z,16.90
2023-03-04T02:28:00.205Z,16.90
2023-03-04T02:30:27.943Z,16.90
2023-03-04T02:32:55.775Z,16.90
2023-03-04T02:35:23.572Z,17.00
2023-03-04T02:37:51.576Z,16.90
2023-03-04T02:40:19.325Z,16.90
2023-03-04T02:42:47.312Z,16.90
2023-03-04T02:45:15.082Z,16.90
2023-03-04T02:47:42.900Z,16.90
2023-03-04T02:50:10.711Z,16.90
2023-03-04T02:52:38.444Z,16.90
2023-03-04T02:55:06.317Z,16.90
2023-03-04T02:57:34.060Z,17.00
2023-03-04T03:00:01.929Z,16.90
2023-03-04T03:02:29.771Z,16.90
2023-03-04T03:04:57.685Z,16.90
2023-03-04T03:07:25.600Z,17.00
2023-03-04T03:09:53.380Z,17.00
2023-03-04T03:12:21.240Z,16.90
2023-03-04T03:14:49.029Z,16.90
2023-03-04T03:17:16.736Z,16.90
2023-03-04T03:19:44.723Z,16.90
2023-03-04T03:22:12.506Z,16.90
2023-03-04T03:24:40.255Z,16.90
2023-03-04T03:27:08.165Z,17.00
2023-03-04T03:29:36.001Z,17.00
2023-03-04T03:32:03.930Z,17.00
2023-03-04T03:34:31.708Z,16.90
2023-03-04T03:36:59.475Z,17.00
2023-03-04T03:39:27.225Z,16.90
2023-03-04T03:41:54.973Z,17.00
2023-03-04T03:44:22.796Z,16.90
2023-03-04T03:46:50.748Z,16.90
2023-03-04T03:49:18.507Z,16.90
2023-03-04T03:51:46.375Z,17.00
2023-03-04T03:54:14.166Z,16.90
2023-03-04T03:56:42.015Z,16.90
2023-03-04T03:59:09.833Z,16.90
2023-03-04T04:01:37.881Z,16.90
2023-03-04T04:04:05.972Z,16.90
2023-03-04T04:06:33.753Z,16.90
2023-03-04T04:09:01.516Z,16.90
2023-03-04T04:11:29.271Z,17.00
2023-03-04T04:13:57.078Z,17.00
2023-03-04T04:16:24.865Z,16.90
2023-03-04T04:18:52.682Z,16.90
2023-03-04T04:21:21.066Z,16.90
2023-03-04T04:23:48.863Z,16.90
2023-03-04T04:26:16.797Z,16.90
2023-03-04T04:28:44.587Z,16.90
2023-03-04T04:31:12.429Z,16.90
2023-03-04T04:35:10.238Z,16.90
2023-03-04T04:37:38.188Z,16.90
2023-03-04T04:40:06.387Z,16.90
2023-03-04T04:42:34.206Z,16.90
2023-03-04T04:45:02.452Z,16.90
2023-03-04T04:47:30.218Z,16.90
2023-03-04T04:49:58.121Z,16.90
2023-03-04T04:53:18.715Z,16.90
2023-03-04T04:55:46.534Z,16.90
2023-03-04T04:58:14.264Z,16.90
2023-03-04T05:00:42.106Z,16.90
2023-03-04T05:03:09.978Z,16.90
2023-03-04T05:05:37.746Z,16.90
2023-03-04T05:08:05.442Z,16.90
2023-03-04T05:10:33.165Z,16.90
2023-03-04T05:13:00.953Z,16.90
2023-03-04T05:15:32.013Z,16.90
2023-03-04T05:17:59.793Z,16.90
2023-03-04T05:22:34.924Z,17.00
2023-03-04T05:26:35.341Z,16.90
2023-03-04T05:29:03.240Z,16.90
2023-03-04T05:31:31.379Z,16.90
2023-03-04T05:34:00.564Z,16.90
2023-03-04T05:36:35.875Z,16.90
2023-03-04T05:39:03.579Z,17.00
2023-03-04T05:41:31.351Z,17.00
2023-03-04T05:43:59.194Z,17.10
2023-03-04T05:46:27.050Z,17.20
2023-03-04T05:48:54.842Z,17.30
2023-03-04T05:53:51.539Z,17.40
2023-03-04T05:56:19.349Z,17.40
2023-03-04T05:58:47.578Z,17.50
2023-03-04T06:01:15.591Z,17.50
2023-03-04T06:05:05.886Z,17.60
2023-03-04T06:07:33.656Z,17.60
2023-03-04T06:10:01.651Z,17.70
2023-03-04T06:12:29.869Z,17.70
2023-03-04T06:14:57.697Z,17.70
2023-03-04T06:17:25.461Z,17.70
2023-03-04T06:19:53.206Z,17.80
2023-03-04T06:22:20.971Z,17.90
2023-03-04T06:24:48.808Z,18.10
2023-03-04T06:27:16.891Z,18.40
2023-03-04T06:29:44.633Z,18.60
2023-03-04T06:32:12.442Z,18.90
2023-03-04T06:34:40.195Z,19.10
2023-03-04T06:37:08.015Z,19.30
2023-03-04T06:39:35.809Z,19.50
2023-03-04T06:42:03.779Z,19.70
2023-03-04T06:44:31.641Z,19.90
2023-03-04T06:46:59.950Z,20.00
2023-03-04T06:49:28.196Z,20.10
2023-03-04T06:51:56.054Z,20.10
2023-03-04T06:54:23.790Z,20.20
2023-03-04T06:56:51.606Z,20.10
2023-03-04T06:59:19.500Z,20.10
2023-03-04T07:01:47.441Z,20.10
2023-03-04T07:04:15.598Z,20.00
2023-03-04T07:06:43.661Z,19.90
2023-03-04T07:09:11.486Z,19.90
2023-03-04T07:11:39.305Z,19.80
2023-03-04T07:14:07.117Z,19.80
2023-03-04T07:20:51.207Z,19.60
2023-03-04T07:23:19.334Z,19.60
2023-03-04T07:25:47.091Z,19.60
2023-03-04T07:28:15.070Z,19.60
2023-03-04T07:30:42.899Z,19.50
2023-03-04T07:33:10.700Z,19.50
2023-03-04T07:35:38.680Z,19.50
2023-03-04T07:38:06.560Z,19.40
2023-03-04T07:40:34.297Z,19.40
2023-03-04T07:43:02.140Z,19.40
2023-03-04T07:47:21.057Z,19.30
2023-03-04T07:49:49.935Z,19.30
2023-03-04T07:52:17.792Z,19.20
2023-03-04T07:54:45.486Z,19.20
2023-03-04T07:57:13.212Z,19.10
2023-03-04T07:59:40.970Z,19.10
2023-03-04T08:02:09.848Z,19.00
2023-03-04T08:04:37.700Z,18.90
2023-03-04T08:07:05.407Z,18.80
2023-03-04T08:09:33.144Z,18.70
2023-03-04T08:12:00.849Z,18.70
2023-03-04T08:14:28.702Z,18.60
2023-03-04T08:16:56.424Z,18.60
2023-03-04T08:19:26.096Z,18.60
2023-03-04T08:21:53.903Z,18.80
2023-03-04T08:24:21.621Z,19.00
2023-03-04T08:26:49.799Z,19.30
2023-03-04T08:29:17.716Z,19.60
2023-03-04T08:31:48.682Z,19.80
2023-03-04T08:35:22.793Z,20.20
2023-03-04T08:37:50.801Z,20.40
2023-03-04T08:40:18.793Z,20.50
2023-03-04T08:42:46.544Z,20.60
2023-03-04T08:45:14.516Z,20.60
2023-03-04T08:47:42.487Z,20.70
2023-03-04T08:50:10.387Z,20.70
2023-03-04T08:52:38.163Z,20.70
2023-03-04T08:55:38.668Z,20.60
2023-03-04T08:58:06.417Z,20.60
2023-03-04T09:00:34.185Z,20.60
2023-03-04T09:03:02.052Z,20.60
2023-03-04T09:05:30.181Z,20.50
2023-03-04T09:07:58.035Z,20.50
2023-03-04T09:10:25.738Z,20.50
2023-03-04T09:12:53.708Z,20.40
2023-03-04T09:15:21.422Z,20.40
2023-03-04T09:17:49.163Z,20.30
2023-03-04T09:20:17.115Z,20.30
2023-03-04T09:22:44.862Z,20.30
2023-03-04T09:25:13.264Z,20.30
2023-03-04T09:27:41.030Z,20.20
2023-03-04T09:30:08.812Z,20.20
2023-03-04T09:32:36.841Z,20.10
2023-03-04T09:35:04.657Z,20.10
2023-03-04T09:37:32.504Z,20.10
2023-03-04T09:40:00.239Z,20.00
2023-03-04T09:42:29.425Z,20.00
2023-03-04T09:44:57.329Z,20.00
2023-03-04T09:47:25.131Z,19.90
2023-03-04T09:49:53.037Z,19.90
2023-03-04T09:52:20.880Z,19.90
2023-03-04T09:56:09.053Z,19.90
2023-03-04T09:58:36.777Z,19.80
2023-03-04T10:01:05.442Z,19.80
2023-03-04T10:03:33.336Z,19.70
2023-03-04T10:06:01.212Z,19.60
2023-03-04T10:08:29.254Z,19.50
2023-03-04T10:10:57.167Z,19.40
2023-03-04T10:13:25.074Z,19.30
2023-03-04T10:15:53.784Z,19.30
2023-03-04T10:18:23.077Z,19.20
2023-03-04T10:20:58.275Z,19.10
2023-03-04T10:23:26.067Z,19.10
2023-03-04T10:25:54.887Z,19.10
2023-03-04T10:29:43.215Z,19.00
2023-03-04T10:32:10.997Z,19.00
2023-03-04T10:37:12.935Z,19.00
2023-03-04T10:39:40.772Z,18.90
2023-03-04T10:42:08.760Z,18.90
2023-03-04T10:44:38.901Z,18.90
2023-03-04T10:47:06.649Z,18.90
2023-03-04T10:49:34.509Z,18.80
2023-03-04T10:52:02.599Z,18.80
2023-03-04T10:54:30.308Z,18.80
2023-03-04T10:56:58.103Z,18.80
2023-03-04T10:59:25.832Z,18.70
2023-03-04T11:01:53.630Z,18.80
2023-03-04T11:04:22.309Z,18.80
2023-03-04T11:06:50.190Z,18.80
2023-03-04T11:09:17.969Z,18.70
2023-03-04T11:11:46.128Z,18.70
2023-03-04T11:14:14.034Z,18.70
2023-03-04T11:16:41.912Z,18.70
2023-03-04T11:19:09.802Z,18.70
2023-03-04T11:21:40.004Z,18.70
2023-03-04T11:24:13.338Z,18.70
2023-03-04T11:26:50.024Z,18.70
2023-03-04T11:29:17.783Z,18.60
2023-03-04T11:31:45.549Z,18.60
2023-03-04T11:34:13.770Z,18.60
2023-03-04T11:36:41.517Z,18.60
2023-03-04T11:39:09.414Z,18.60
2023-03-04T11:41:37.175Z,18.60
2023-03-04T11:44:04.960Z,18.50
2023-03-04T11:46:33.186Z,18.50
2023-03-04T11:49:02.084Z,18.50
2023-03-04T11:51:29.883Z,18.50
2023-03-04T11:53:57.619Z,18.50
2023-03-04T11:56:25.414Z,18.50
2023-03-04T11:58:53.276Z,18.50
2023-03-04T12:01:21.104Z,18.50
2023-03-04T12:03:49.177Z,18.40
2023-03-04T12:06:17.224Z,18.40
2023-03-04T12:08:45.083Z,18.40
2023-03-04T12:11:12.854Z,18.40
2023-03-04T12:13:40.599Z,18.40
2023-03-04T12:16:08.326Z,18.30
2023-03-04T12:18:36.032Z,18.40
2023-03-04T12:21:03.751Z,18.40
2023-03-04T12:23:31.639Z,18.40
2023-03-04T12:25:59.357Z,18.40
2023-03-04T12:28:27.721Z,18.30
2023-03-04T12:30:55.630Z,18.30
2023-03-04T12:33:23.424Z,18.30
2023-03-04T12:35:51.242Z,18.30
2023-03-04T12:38:19.365Z,18.30
2023-03-04T12:40:47.101Z,18.30
2023-03-04T12:43:15.909Z,18.40
2023-03-04T12:45:43.735Z,18.40
2023-03-04T12:48:11.606Z,18.40
2023-03-04T12:50:39.277Z,18.60
2023-03-04T12:53:06.992Z,18.90
2023-03-04T12:55:34.946Z,19.20
2023-03-04T12:58:02.737Z,19.50
2023-03-04T13:00:30.773Z,19.80
2023-03-04T13:02:58.633Z,20.00
2023-03-04T13:05:26.479Z,20.20
2023-03-04T13:07:55.016Z,20.40
2023-03-04T13:10:25.616Z,20.60
2023-03-04T13:12:53.532Z,20.80
2023-03-04T13:15:21.623Z,21.00
2023-03-04T13:17:50.313Z,21.10
2023-03-04T13:20:18.053Z,21.20
2023-03-04T13:22:45.858Z,21.30
2023-03-04T13:25:14.131Z,21.30
2023-03-04T13:27:41.862Z,21.30
2023-03-04T13:30:09.626Z,21.30
2023-03-04T13:32:37.626Z,21.30
2023-03-04T13:35:05.458Z,21.30
2023-03-04T13:37:33.166Z,21.20
2023-03-04T13:40:00.956Z,21.20
2023-03-04T13:42:28.705Z,21.10
2023-03-04T13:44:56.751Z,21.10
2023-03-04T13:47:24.656Z,21.00
2023-03-04T13:49:52.724Z,21.00
2023-03-04T13:52:20.598Z,21.00
2023-03-04T13:54:48.503Z,20.90
2023-03-04T13:57:18.438Z,20.90
2023-03-04T13:59:46.466Z,20.80
2023-03-04T14:02:15.879Z,20.80
2023-03-04T14:04:43.701Z,20.70
2023-03-04T14:07:11.485Z,20.70
2023-03-04T14:09:39.276Z,20.70
2023-03-04T14:12:07.001Z,20.60
2023-03-04T14:14:37.514Z,20.60
2023-03-04T14:17:05.348Z,20.50
2023-03-04T14:19:33.484Z,20.50
2023-03-04T14:22:01.331Z,20.40
2023-03-04T14:24:30.851Z,20.40
2023-03-04T14:26:58.631Z,20.30
2023-03-04T14:29:26.483Z,20.30
2023-03-04T14:31:54.381Z,20.20
2023-03-04T14:34:22.200Z,20.20
2023-03-04T14:36:50.111Z,20.10
2023-03-04T14:39:17.985Z,20.20
2023-03-04T14:41:45.725Z,20.20
2023-03-04T14:44:13.677Z,20.20
2023-03-04T14:46:41.464Z,20.30
2023-03-04T14:49:09.306Z,20.40
2023-03-04T14:51:37.051Z,20.50
2023-03-04T14:54:04.966Z,20.60
2023-03-04T14:56:32.718Z,20.70
2023-03-04T14:59:00.450Z,20.80
2023-03-04T15:01:28.253Z,20.80
2023-03-04T15:03:56.287Z,20.80
2023-03-04T15:06:24.213Z,20.80
2023-03-04T15:08:53.210Z,20.80
2023-03-04T15:11:21.856Z,20.80
2023-03-04T15:13:49.848Z,20.80
2023-03-04T15:16:17.800Z,20.80
2023-03-04T15:18:45.663Z,20.70
2023-03-04T15:21:13.460Z,20.70
2023-03-04T15:23:41.246Z,20.60
2023-03-04T15:26:08.984Z,20.50
2023-03-04T15:28:36.726Z,20.50
2023-03-04T15:31:04.615Z,20.50
2023-03-04T15:33:32.618Z,20.40
2023-03-04T15:36:00.487Z,20.30
2023-03-04T15:38:28.351Z,20.30
2023-03-04T15:40:56.547Z,20.20
2023-03-04T15:43:24.320Z,20.20
2023-03-04T15:45:52.103Z,20.10
2023-03-04T15:48:20.084Z,20.10
2023-03-04T15:50:47.835Z,20.00
2023-03-04T15:53:15.812Z,20.00
2023-03-04T15:55:43.583Z,19.90
2023-03-04T15:58:11.475Z,19.90
2023-03-04T16:00:39.222Z,19.90
2023-03-04T16:03:06.992Z,19.90
2023-03-04T16:05:34.975Z,19.90
2023-03-04T16:08:02.720Z,19.90
2023-03-04T16:10:30.872Z,19.90
2023-03-04T16:12:58.687Z,19.90
2023-03-04T16:15:26.519Z,19.80
2023-03-04T16:17:54.324Z,19.80
2023-03-04T16:20:22.393Z,19.80
2023-03-04T16:22:50.176Z,19.70
2023-03-04T16:25:18.014Z,19.70
2023-03-04T16:27:45.814Z,19.70
2023-03-04T16:30:13.613Z,19.70
2023-03-04T16:32:41.600Z,19.60
2023-03-04T16:35:09.372Z,19.50
2023-03-04T16:37:37.189Z,19.40
2023-03-04T16:40:05.068Z,19.30
2023-03-04T16:42:32.845Z,19.30
2023-03-04T16:45:01.057Z,19.20
2023-03-04T16:47:28.977Z,19.20
2023-03-04T16:49:57.695Z,19.40
2023-03-04T16:52:25.576Z,19.60
2023-03-04T16:54:53.379Z,19.80
2023-03-04T16:57:21.188Z,20.00
2023-03-04T16:59:48.989Z,20.20
2023-03-04T17:02:16.716Z,20.40
2023-03-04T17:04:44.690Z,20.60
2023-03-04T17:07:12.503Z,20.70
2023-03-04T17:09:40.295Z,20.80
2023-03-04T17:12:08.019Z,20.90
2023-03-04T17:14:42.700Z,20.90
2023-03-04T17:17:11.739Z,20.90
2023-03-04T17:19:42.081Z,20.90
2023-03-04T17:22:09.813Z,20.90
2023-03-04T17:24:40.007Z,20.90
2023-03-04T17:27:10.172Z,20.80
2023-03-04T17:29:45.788Z,20.80
2023-03-04T17:32:17.300Z,20.70
2023-03-04T17:34:49.185Z,20.70
2023-03-04T17:37:26.634Z,20.60
2023-03-04T17:40:00.177Z,20.50
2023-03-04T18:20:26.318Z,19.40
2023-03-04T18:22:54.137Z,19.30
2023-03-04T18:25:21.995Z,19.20
2023-03-04T18:27:49.787Z,19.10
2023-03-04T18:30:17.811Z,19.00
2023-03-04T18:32:51.817Z,18.90
2023-03-04T18:35:20.262Z,18.90
2023-03-04T18:37:48.101Z,18.90
2023-03-04T18:40:15.854Z,18.80
2023-03-04T18:42:44.287Z,18.70
2023-03-04T18:45:12.070Z,18.70
2023-03-04T18:47:39.865Z,18.70
2023-03-04T18:50:07.638Z,18.60
2023-03-04T18:52:36.000Z,18.70
2023-03-04T18:55:03.734Z,18.90
2023-03-04T18:57:31.692Z,19.10
2023-03-04T18:59:59.997Z,19.40
2023-03-04T19:02:27.969Z,19.70
2023-03-04T19:04:55.699Z,19.90
2023-03-04T19:07:23.852Z,20.10
2023-03-04T19:09:51.648Z,20.30
2023-03-04T19:12:19.388Z,20.40
2023-03-04T19:14:47.262Z,20.60
2023-03-04T19:17:15.306Z,20.70
2023-03-04T19:19:43.108Z,20.70
2023-03-04T19:22:10.874Z,20.80
2023-03-04T19:24:38.666Z,20.80
2023-03-04T19:27:06.509Z,20.80
2023-03-04T19:29:34.464Z,20.90
2023-03-04T19:32:02.343Z,20.80
2023-03-04T19:34:30.152Z,20.80
2023-03-04T19:36:57.888Z,20.80
2023-03-04T19:39:25.735Z,20.70
2023-03-04T19:41:53.490Z,20.60
2023-03-04T19:44:21.315Z,20.60
2023-03-04T19:46:49.112Z,20.50
2023-03-04T19:49:16.930Z,20.50
2023-03-04T19:51:44.756Z,20.40
2023-03-04T19:54:12.515Z,20.40
2023-03-04T19:56:40.270Z,20.30
2023-03-04T19:59:08.047Z,20.30
2023-03-04T20:01:35.785Z,20.20
2023-03-04T20:04:03.639Z,20.10
2023-03-04T20:06:31.388Z,20.10
2023-03-04T20:08:59.206Z,20.00
2023-03-04T20:11:26.997Z,20.00
2023-03-04T20:13:55.112Z,19.90
2023-03-04T20:16:22.868Z,19.90
2023-03-04T20:18:50.784Z,19.80
2023-03-04T20:21:18.977Z,19.70
2023-03-04T20:23:46.772Z,19.70
2023-03-04T20:26:14.643Z,19.60
2023-03-04T20:28:42.428Z,19.50
2023-03-04T20:31:10.432Z,19.30
2023-03-04T20:33:38.195Z,19.20
2023-03-04T20:36:05.961Z,19.20
2023-03-04T20:38:33.754Z,19.10
2023-03-04T20:41:02.024Z,19.00
2023-03-04T20:43:31.229Z,19.00
2023-03-04T20:45:59.039Z,18.90
2023-03-04T20:48:27.122Z,18.90
2023-03-04T20:50:54.882Z,18.80
2023-03-04T20:53:22.645Z,18.70
2023-03-04T20:55:50.437Z,18.70
2023-03-04T20:58:18.227Z,18.70
2023-03-04T21:00:48.489Z,18.60
2023-03-04T21:03:16.421Z,18.60
2023-03-04T21:05:44.178Z,18.50
2023-03-04T21:08:13.463Z,18.50
2023-03-04T21:10:41.208Z,18.50
2023-03-04T21:13:11.287Z,18.50
2023-03-04T21:15:39.103Z,18.40
2023-03-04T21:18:06.914Z,18.40
2023-03-04T21:20:34.752Z,18.40
2023-03-04T21:23:02.466Z,18.40
2023-03-04T21:25:30.372Z,18.40
2023-03-04T21:27:58.177Z,18.30
2023-03-04T21:30:25.967Z,18.30
2023-03-04T21:32:54.141Z,18.30
2023-03-04T21:35:22.275Z,18.30
2023-03-04T21:37:51.427Z,18.30
2023-03-04T21:40:19.280Z,18.30
2023-03-04T21:42:47.134Z,18.30
2023-03-04T21:45:15.059Z,18.30
2023-03-04T21:47:42.812Z,18.30
2023-03-04T21:50:10.752Z,18.30
2023-03-04T21:52:38.519Z,18.30
2023-03-04T21:55:06.438Z,18.20
2023-03-04T21:57:34.355Z,18.20
2023-03-04T22:00:02.476Z,18.20
2023-03-04T22:02:31.113Z,18.20
2023-03-04T22:04:59.015Z,18.20
2023-03-04T22:07:26.798Z,18.20
2023-03-04T22:09:55.638Z,18.10
2023-03-04T22:12:23.484Z,18.10
2023-03-04T22:14:51.308Z,18.10
2023-03-04T22:17:19.099Z,18.10
2023-03-04T22:19:46.946Z,18.10
2023-03-04T22:22:17.981Z,18.10
2023-03-04T22:24:45.843Z,18.10
2023-03-04T22:27:13.617Z,18.10
2023-03-04T22:29:41.578Z,18.10
2023-03-04T22:32:09.355Z,18.10
2023-03-04T22:34:37.363Z,18.10
2023-03-04T22:37:05.081Z,18.10
2023-03-04T22:39:32.820Z,18.10
2023-03-04T22:42:00.715Z,18.00
2023-03-04T22:44:28.490Z,18.00
2023-03-04T22:46:56.222Z,18.00
2023-03-04T22:49:24.104Z,18.00
2023-03-04T22:51:51.795Z,18.00
2023-03-04T22:54:19.795Z,18.00
2023-03-04T22:56:47.556Z,18.00
2023-03-04T22:59:15.503Z,18.00
2023-03-04T23:01:43.298Z,18.00
2023-03-04T23:04:11.298Z,18.00
2023-03-04T23:06:39.065Z,17.90
2023-03-04T23:09:06.938Z,18.00
2023-03-04T23:11:35.398Z,17.90
2023-03-04T23:14:06.470Z,17.90
2023-03-04T23:16:37.194Z,17.90
2023-03-04T23:19:05.056Z,17.90
2023-03-04T23:21:34.007Z,17.90
2023-03-04T23:24:02.387Z,17.90
2023-03-04T23:26:30.570Z,17.80
2023-03-04T23:29:01.320Z,17.80
2023-03-04T23:31:29.092Z,17.80
2023-03-04T23:33:57.577Z,17.80
2023-03-04T23:36:25.447Z,17.80
2023-03-04T23:38:53.261Z,17.80
2023-03-04T23:41:21.292Z,17.70
2023-03-04T23:43:49.053Z,17.80
2023-03-04T23:46:16.812Z,17.70
2023-03-04T23:48:46.344Z,17.80
2023-03-04T23:51:14.251Z,17.80
2023-03-04T23:53:41.952Z,17.80
2023-03-04T23:56:09.692Z,17.80
2023-03-04T23:58:37.689Z,17.80
